Time;durP1;ratioP1;P1;durP2;ratioP2;P2;SDS_P1;SDS_P2;PMS_P1;PMS_P2;Temp;Humidity;BMP_temperature;BMP_pressure;BME280_temperature;BME280_humidity;BME280_pressure;Samples;Min_cycle;Max_cycle;Signal;HPM_P1;HPM_P2
2022/09/28 00:00:04;;;;;;;7.38;2.30;;;;;;;9.29;100.00;97936.59;12186313;19;20022;-77
2022/09/28 00:04:12;;;;;;;4.97;2.55;;;;;;;9.24;100.00;97928.38;12206119;19;20381;-79
2022/09/28 00:08:14;;;;;;;5.80;2.50;;;;;;;9.25;100.00;97927.28;12209511;19;20351;-77
2022/09/28 00:12:15;;;;;;;5.00;2.33;;;;;;;9.28;100.00;97910.19;12194361;19;20011;-79
2022/09/28 00:16:19;;;;;;;6.82;2.40;;;;;;;9.30;100.00;97908.00;12209918;19;20081;-79
2022/09/28 00:20:21;;;;;;;6.75;2.47;;;;;;;9.35;100.00;97906.03;12212855;19;20582;-79
2022/09/28 00:24:23;;;;;;;8.10;2.50;;;;;;;9.35;100.00;97886.78;12182997;19;20011;-78
2022/09/28 00:28:28;;;;;;;7.03;2.67;;;;;;;9.39;100.00;97875.22;12208059;19;20015;-78
2022/09/28 00:32:30;;;;;;;5.63;2.85;;;;;;;9.45;100.00;97868.56;12201040;19;20085;-78
2022/09/28 00:36:32;;;;;;;8.50;3.00;;;;;;;9.46;100.00;97865.53;12206692;19;20034;-78
2022/09/28 00:40:34;;;;;;;7.07;3.47;;;;;;;9.37;100.00;97870.03;12207349;19;20483;-77
2022/09/28 00:44:38;;;;;;;8.88;3.63;;;;;;;9.39;100.00;97851.28;12183849;19;20023;-77
2022/09/28 00:48:47;;;;;;;9.25;4.20;;;;;;;9.42;100.00;97858.94;12202577;19;20007;-77
2022/09/28 00:52:52;;;;;;;9.25;4.15;;;;;;;9.37;100.00;97839.78;12212333;19;20010;-78
2022/09/28 00:56:55;;;;;;;10.85;4.88;;;;;;;9.43;100.00;97826.78;12194668;19;20504;-77
2022/09/28 01:00:58;;;;;;;8.55;4.40;;;;;;;9.38;100.00;97835.91;12217654;19;20027;-78
2022/09/28 01:05:02;;;;;;;7.05;3.72;;;;;;;9.46;100.00;97820.69;12216925;19;20014;-77
2022/09/28 01:09:07;;;;;;;9.32;4.20;;;;;;;9.49;100.00;97815.47;12185971;19;20003;-77
2022/09/28 01:13:11;;;;;;;12.13;4.68;;;;;;;9.52;100.00;97803.06;12220932;19;20031;-78
2022/09/28 01:17:15;;;;;;;8.82;4.28;;;;;;;9.48;100.00;97791.81;12214234;19;20021;-78
2022/09/28 01:21:22;;;;;;;5.63;3.35;;;;;;;9.50;100.00;97789.59;12193038;19;20018;-77
2022/09/28 01:25:39;;;;;;;6.75;3.30;;;;;;;9.47;100.00;97787.44;12212354;19;20033;-78
2022/09/28 01:29:52;;;;;;;9.20;3.28;;;;;;;9.45;100.00;97789.66;12193521;19;20019;-78
2022/09/28 01:33:57;;;;;;;;;;;;;;;9.46;100.00;97776.72;12216911;19;20006;-78
2022/09/28 01:38:12;;;;;;;7.47;2.90;;;;;;;9.47;100.00;97776.44;12212585;19;21218;-78
2022/09/28 01:42:21;;;;;;;9.32;2.80;;;;;;;9.49;100.00;97774.22;12192040;19;20015;-79
2022/09/28 01:46:31;;;;;;;5.93;3.17;;;;;;;9.44;100.00;97768.78;12211431;19;20089;-80
2022/09/28 01:50:36;;;;;;;6.47;2.78;;;;;;;9.44;100.00;97757.78;12195801;19;20010;-78
2022/09/28 01:54:45;;;;;;;10.18;3.10;;;;;;;9.50;100.00;97756.59;12219819;19;20057;-78
2022/09/28 01:58:54;;;;;;;8.65;3.40;;;;;;;9.54;100.00;97760.41;12214924;19;20002;-80
2022/09/28 02:03:11;;;;;;;7.25;3.40;;;;;;;9.56;100.00;97749.94;12192483;19;20018;-77
2022/09/28 02:07:22;;;;;;;6.53;3.42;;;;;;;9.59;100.00;97748.53;12212723;19;20010;-77
2022/09/28 02:11:24;;;;;;;7.72;4.50;;;;;;;9.61;100.00;97749.06;12217874;19;20006;-79
2022/09/28 02:15:34;;;;;;;7.32;4.13;;;;;;;9.66;100.00;97748.16;12197794;19;20010;-78
2022/09/28 02:19:38;;;;;;;6.75;4.70;;;;;;;9.72;100.00;97746.97;12213195;19;20033;-77
2022/09/28 02:23:51;;;;;;;11.35;4.63;;;;;;;9.74;100.00;97745.59;12192182;19;20474;-78
2022/09/28 02:28:01;;;;;;;9.18;4.85;;;;;;;9.79;100.00;97744.72;12212910;19;20115;-77
2022/09/28 02:32:03;;;;;;;12.75;4.90;;;;;;;9.81;100.00;97745.22;12215726;19;20010;-79
2022/09/28 02:36:05;;;;;;;10.52;5.05;;;;;;;9.83;100.00;97740.25;12192123;19;20022;-79
2022/09/28 02:40:12;;;;;;;12.95;5.32;;;;;;;9.89;100.00;97719.00;12216055;19;20150;-78
2022/09/28 02:44:41;;;;;;;14.90;6.28;;;;;;;9.86;100.00;97736.09;12215313;19;20082;-79
2022/09/28 02:49:09;;;;;;;13.23;6.25;;;;;;;9.82;100.00;97724.88;12191609;19;20483;-78
2022/09/28 02:53:49;;;;;;;12.48;6.13;;;;;;;9.78;100.00;97724.63;12222739;19;20080;-79
2022/09/28 02:58:17;;;;;;;9.35;5.50;;;;;;;9.79;100.00;97720.78;12193681;19;20054;-78
2022/09/28 03:02:29;;;;;;;10.82;5.50;;;;;;;9.80;100.00;97718.84;12210786;19;20018;-78
2022/09/28 03:06:46;;;;;;;7.75;4.47;;;;;;;9.80;100.00;97718.84;12190943;19;20011;-78
2022/09/28 03:11:01;;;;;;;8.90;4.45;;;;;;;9.84;100.00;97717.13;12213067;19;20018;-78
2022/09/28 03:15:19;;;;;;;7.90;4.10;;;;;;;9.82;100.00;97720.19;12189421;19;20471;-77
2022/09/28 03:19:32;;;;;;;9.00;4.25;;;;;;;9.82;100.00;97722.13;12213421;19;20029;-78
2022/09/28 03:23:34;;;;;;;8.32;3.90;;;;;;;9.84;100.00;97703.34;12190452;19;20007;-79
2022/09/28 03:27:37;;;;;;;6.10;3.70;;;;;;;9.84;100.00;97699.78;12213346;19;20041;-79
2022/09/28 03:31:39;;;;;;;7.13;3.20;;;;;;;9.80;100.00;97710.59;12187004;19;20568;-78
2022/09/28 03:35:45;;;;;;;5.95;2.60;;;;;;;9.78;100.00;97712.78;12212932;19;20010;-78
2022/09/28 03:39:48;;;;;;;6.93;3.08;;;;;;;9.81;100.00;97735.06;12210443;19;20406;-80
2022/09/28 03:43:51;;;;;;;8.32;2.60;;;;;;;9.79;100.00;97742.78;12207866;19;20522;-79
2022/09/28 03:47:52;;;;;;;5.32;2.50;;;;;;;9.80;100.00;97743.59;12188772;19;20016;-79
2022/09/28 03:51:54;;;;;;;7.55;2.33;;;;;;;9.82;100.00;97747.69;12215425;19;19998;-77
2022/09/28 03:56:06;;;;;;;3.70;1.40;;;;;;;9.79;100.00;97744.72;12211428;19;20003;-78
2022/09/28 04:00:08;;;;;;;3.53;1.35;;;;;;;9.79;100.00;97750.22;12193217;19;20106;-78
2022/09/28 04:04:16;;;;;;;4.60;1.67;;;;;;;9.80;100.00;97730.66;12212585;19;20383;-79
2022/09/28 04:08:19;;;;;;;1.83;1.23;;;;;;;9.82;100.00;97735.88;12212432;19;20030;-78
2022/09/28 04:12:22;;;;;;;6.18;1.58;;;;;;;9.82;100.00;97742.19;12192840;19;20011;-79
2022/09/28 04:16:23;;;;;;;4.32;1.33;;;;;;;9.82;100.00;97755.13;12213581;19;20487;-78
2022/09/28 04:20:40;;;;;;;3.58;1.52;;;;;;;9.78;100.00;97746.63;12187370;19;20022;-79
2022/09/28 04:24:46;;;;;;;2.28;1.15;;;;;;;9.79;100.00;97741.97;12207979;19;20042;-80
2022/09/28 04:33:09;;;;;;;3.58;1.58;;;;;;;9.64;100.00;97750.38;12195864;19;20023;-81
2022/09/28 04:37:11;;;;;;;2.63;1.40;;;;;;;9.57;100.00;97753.50;12218247;19;20031;-79
2022/09/28 04:41:13;;;;;;;4.38;1.40;;;;;;;9.50;100.00;97747.53;12218715;19;20104;-80
2022/09/28 04:45:15;;;;;;;3.65;1.70;;;;;;;9.49;100.00;97754.16;12195452;19;20479;-79
2022/09/28 04:49:19;;;;;;;3.72;1.60;;;;;;;9.44;100.00;97748.72;12214799;19;20011;-80
2022/09/28 04:53:27;;;;;;;5.65;1.58;;;;;;;9.43;100.00;97758.91;12218850;19;20010;-79
2022/09/28 04:57:29;;;;;;;3.10;1.90;;;;;;;9.44;100.00;97763.28;12197146;19;20017;-79
2022/09/28 05:01:31;;;;;;;4.28;1.58;;;;;;;9.42;100.00;97770.16;12214425;19;20018;-79
2022/09/28 05:05:35;;;;;;;4.50;1.90;;;;;;;9.44;100.00;97767.97;12198853;19;20014;-78
2022/09/28 05:10:12;;;;;;;6.13;1.98;;;;;;;9.40;100.00;97773.22;12220704;19;20369;-81
2022/09/28 05:14:15;;;;;;;3.73;2.00;;;;;;;9.34;100.00;97786.22;12212568;19;20015;-82
2022/09/28 05:18:16;;;;;;;3.17;1.90;;;;;;;9.32;100.00;97782.09;12172338;19;20072;-83
2022/09/28 05:22:21;;;;;;;8.55;3.28;;;;;;;9.35;100.00;97781.53;12209960;19;20002;-83
2022/09/28 05:26:24;;;;;;;4.38;2.65;;;;;;;9.40;100.00;97789.72;12215287;19;20015;-82
2022/09/28 05:30:26;;;;;;;4.70;2.65;;;;;;;9.45;100.00;97788.84;12199397;19;20032;-82
2022/09/28 05:34:46;;;;;;;5.15;2.95;;;;;;;9.48;100.00;97789.06;12221608;19;20043;-82
2022/09/28 05:38:55;;;;;;;5.97;2.78;;;;;;;9.49;100.00;97801.72;12194082;19;20008;-81
2022/09/28 05:42:58;;;;;;;7.70;3.07;;;;;;;9.55;100.00;97800.53;12214841;19;20027;-81
2022/09/28 05:47:00;;;;;;;6.40;2.70;;;;;;;9.57;100.00;97814.78;12216652;19;20034;-81
2022/09/28 05:51:02;;;;;;;6.38;3.00;;;;;;;9.58;100.00;97813.72;12191206;19;20014;-82
2022/09/28 05:55:05;;;;;;;5.03;2.53;;;;;;;9.54;100.00;97800.81;12217763;19;20360;-81
2022/09/28 05:59:08;;;;;;;4.78;2.83;;;;;;;9.47;100.00;97806.69;12217314;19;20055;-82
2022/09/28 06:03:12;;;;;;;5.88;2.47;;;;;;;9.35;100.00;97803.50;12195090;19;20007;-81
2022/09/28 06:07:14;;;;;;;5.90;2.22;;;;;;;9.28;100.00;97819.50;12213343;19;20014;-82
2022/09/28 06:11:17;;;;;;;6.20;2.70;;;;;;;9.19;100.00;97821.25;12220285;19;20020;-82
2022/09/28 06:15:27;;;;;;;6.57;3.15;;;;;;;9.08;100.00;97812.31;12195196;19;20032;-81
2022/09/28 06:19:29;;;;;;;6.18;3.25;;;;;;;8.97;100.00;97819.81;12214727;19;20781;-81
2022/09/28 06:23:37;;;;;;;4.68;2.33;;;;;;;8.92;100.00;97827.25;12191505;19;20049;-81
2022/09/28 06:27:41;;;;;;;4.25;2.72;;;;;;;8.84;100.00;97831.47;12211868;19;20368;-81
2022/09/28 06:31:46;;;;;;;7.25;2.90;;;;;;;8.81;100.00;97840.28;12214842;19;20046;-82
2022/09/28 06:35:48;;;;;;;;;;;;;;;8.81;100.00;97843.84;12201212;19;20018;-81
2022/09/28 06:39:49;;;;;;;4.13;2.22;;;;;;;8.82;100.00;97847.41;12217092;19;19958;-81
2022/09/28 06:43:52;;;;;;;12.27;3.78;;;;;;;8.80;100.00;97853.16;12215985;19;20010;-83
2022/09/28 06:48:14;;;;;;;9.00;4.30;;;;;;;8.81;100.00;97859.50;12192269;19;20029;-82
2022/09/28 06:52:16;;;;;;;6.38;2.72;;;;;;;8.82;100.00;97859.19;12213654;19;20011;-81
2022/09/28 06:56:39;;;;;;;5.78;2.90;;;;;;;8.89;100.00;97862.47;12193135;19;20007;-81
2022/09/28 07:00:42;;;;;;;6.82;2.33;;;;;;;8.96;100.00;97861.31;12217364;19;20014;-82
2022/09/28 07:04:43;;;;;;;5.43;2.50;;;;;;;9.00;100.00;97867.84;12212912;19;20014;-82
2022/09/28 07:08:45;;;;;;;5.00;2.15;;;;;;;9.07;100.00;97879.31;12192137;19;20007;-81
2022/09/28 07:13:27;;;;;;;4.05;2.13;;;;;;;9.23;100.00;97889.09;12214066;19;20024;-81
2022/09/28 07:18:04;;;;;;;7.15;2.20;;;;;;;9.26;100.00;97901.44;12189495;19;20013;-81
2022/09/28 07:22:06;;;;;;;3.67;1.83;;;;;;;9.23;100.00;97904.78;12207331;19;20014;-81
2022/09/28 07:26:08;;;;;;;3.25;1.92;;;;;;;9.23;100.00;97902.03;12214194;19;20110;-81
2022/09/28 07:30:39;;;;;;;6.25;2.05;;;;;;;9.49;100.00;97913.63;12187153;19;20017;-81
2022/09/28 07:34:47;;;;;;;4.88;2.28;;;;;;;9.90;100.00;97925.00;12215329;19;20010;-80
2022/09/28 07:39:02;;;;;;;4.40;1.45;;;;;;;10.22;100.00;97920.81;12190928;19;20013;-80
2022/09/28 07:43:05;;;;;;;7.22;2.22;;;;;;;10.53;100.00;97920.44;12211960;19;20017;-80
2022/09/28 07:47:07;;;;;;;4.55;1.50;;;;;;;10.79;100.00;97930.00;12212420;19;20023;-81
2022/09/28 07:51:35;;;;;;;7.15;1.40;;;;;;;10.89;100.00;97929.88;12190325;19;20021;-81
2022/09/28 07:56:04;;;;;;;4.05;1.63;;;;;;;11.04;100.00;97936.28;12212217;19;20032;-80
2022/09/28 08:00:15;;;;;;;4.18;1.33;;;;;;;11.12;100.00;97941.09;12220701;19;20044;-80
2022/09/28 08:04:22;;;;;;;4.03;1.30;;;;;;;11.37;100.00;97951.75;12253515;19;20022;-80
2022/09/28 08:08:25;;;;;;;2.60;1.20;;;;;;;11.18;100.00;97953.69;12258708;19;20045;-80
2022/09/28 08:12:27;;;;;;;3.00;1.20;;;;;;;10.81;100.00;97963.59;12234740;19;20006;-81
2022/09/28 08:16:47;;;;;;;3.13;1.20;;;;;;;10.73;100.00;97958.75;12231853;19;20029;-80
2022/09/28 08:25:29;;;;;;;1.83;0.85;;;;;;;11.51;100.00;97971.09;12210780;19;20014;-79
2022/09/28 08:29:34;;;;;;;1.58;0.80;;;;;;;11.49;100.00;97980.78;12206187;19;20476;-79
2022/09/28 08:33:55;;;;;;;1.63;1.23;;;;;;;11.71;100.00;97978.19;12186961;19;20075;-79
2022/09/28 08:38:29;;;;;;;5.22;0.98;;;;;;;12.00;100.00;97982.72;12214224;19;20034;-79
2022/09/28 08:42:56;;;;;;;1.60;0.93;;;;;;;11.95;100.00;97988.31;12187394;19;20091;-79
2022/09/28 08:52:12;;;;;;;2.00;1.00;;;;;;;11.56;100.00;97990.31;12183709;19;20015;-79
2022/09/28 08:56:34;;;;;;;3.20;1.00;;;;;;;11.41;100.00;98005.16;12207349;19;20015;-77
2022/09/28 09:00:46;;;;;;;5.40;1.55;;;;;;;11.50;100.00;98005.31;12184314;19;20078;-78
2022/09/28 09:04:50;;;;;;;3.70;1.15;;;;;;;11.57;100.00;98013.19;12201512;19;20139;-78
2022/09/28 09:09:22;;;;;;;3.75;0.90;;;;;;;11.59;100.00;98010.97;12179577;19;20111;-79
2022/09/28 09:13:48;;;;;;;8.70;1.33;;;;;;;11.75;100.00;98009.59;12204362;19;20470;-78
2022/09/28 09:18:36;;;;;;;2.90;1.10;;;;;;;11.88;100.00;98012.75;12199569;19;20483;-78
2022/09/28 09:23:09;;;;;;;5.00;0.90;;;;;;;12.31;100.00;98018.84;12216374;19;20038;-79
2022/09/28 09:27:36;;;;;;;2.55;0.93;;;;;;;12.32;100.00;98021.31;12191260;19;20026;-79
2022/09/28 09:32:04;;;;;;;4.50;0.98;;;;;;;12.17;100.00;98012.50;12214486;19;20011;-77
2022/09/28 09:36:28;;;;;;;3.25;1.20;;;;;;;12.80;100.00;98019.28;12198296;19;20015;-79
2022/09/28 09:41:16;;;;;;;2.75;0.88;;;;;;;13.19;100.00;98010.41;12217080;19;20471;-78
2022/09/28 09:46:13;;;;;;;3.05;0.95;;;;;;;13.38;100.00;98010.28;12196365;19;20032;-77
2022/09/28 09:50:33;;;;;;;1.23;0.63;;;;;;;13.78;100.00;98004.94;12216803;19;20011;-78
2022/09/28 09:54:41;;;;;;;2.25;0.80;;;;;;;13.97;95.99;98005.53;12199300;19;20050;-79
2022/09/28 09:58:52;;;;;;;4.10;1.10;;;;;;;13.78;92.26;98007.69;12217772;19;20006;-79
2022/09/28 10:02:59;;;;;;;1.27;0.88;;;;;;;13.44;92.96;98009.03;12197246;19;20014;-77
2022/09/28 10:07:21;;;;;;;8.00;1.50;;;;;;;13.01;96.83;98009.44;12218533;19;20401;-79
2022/09/28 10:11:31;;;;;;;6.78;3.28;;;;;;;13.22;98.33;98013.38;12219974;19;20011;-78
2022/09/28 10:15:37;;;;;;;3.20;0.80;;;;;;;13.77;92.28;98011.56;12199692;19;20461;-78
2022/09/28 10:19:52;;;;;;;2.45;0.90;;;;;;;13.54;92.24;98006.03;12216243;19;20034;-79
2022/09/28 10:24:28;;;;;;;1.92;1.00;;;;;;;14.05;92.42;98006.72;12192478;19;20026;-79
2022/09/28 10:28:46;;;;;;;4.28;1.00;;;;;;;14.93;83.46;98012.38;12216723;19;20010;-79
2022/09/28 10:32:51;;;;;;;12.65;1.33;;;;;;;15.37;79.82;98010.47;12188813;19;20050;-79
2022/09/28 10:36:59;;;;;;;8.60;1.15;;;;;;;14.86;75.19;98019.50;12216355;19;20021;-79
2022/09/28 10:41:10;;;;;;;2.28;0.70;;;;;;;14.39;76.25;98025.47;12215338;19;20007;-78
2022/09/28 10:45:33;;;;;;;;;;;;;;;13.78;79.59;98033.41;12194969;19;20034;-78
2022/09/28 10:49:44;;;;;;;3.30;0.60;;;;;;;13.39;83.28;98029.34;12214863;19;19914;-79
2022/09/28 10:54:00;;;;;;;1.00;0.60;;;;;;;13.18;84.45;98042.78;12191268;19;20463;-79
2022/09/28 10:58:34;;;;;;;4.13;0.50;;;;;;;13.28;84.23;98043.72;12216528;19;20500;-78
2022/09/28 11:02:39;;;;;;;3.15;0.70;;;;;;;13.56;84.42;98042.50;12213061;19;20037;-77
2022/09/28 11:06:58;;;;;;;3.78;0.60;;;;;;;13.89;83.46;98040.34;12191425;19;20006;-78
2022/09/28 11:11:10;;;;;;;3.47;0.73;;;;;;;14.18;82.64;98047.38;12214689;19;20006;-79
2022/09/28 11:15:27;;;;;;;1.23;0.63;;;;;;;14.39;80.04;98050.41;12192350;19;20007;-78
2022/09/28 11:19:29;;;;;;;1.67;0.70;;;;;;;14.81;78.97;98042.63;12213378;19;20014;-79
2022/09/28 11:23:31;;;;;;;2.22;0.75;;;;;;;15.10;70.38;98028.22;12211663;19;20014;-78
2022/09/28 11:27:50;;;;;;;2.97;0.70;;;;;;;15.19;71.13;98026.25;12197284;19;20010;-80
2022/09/28 11:31:57;;;;;;;2.28;0.85;;;;;;;15.16;73.11;98032.47;12226071;19;20324;-80
2022/09/28 11:36:23;;;;;;;1.65;0.55;;;;;;;15.01;72.16;98032.91;12195045;19;20049;-79
2022/09/28 11:40:33;;;;;;;1.85;0.68;;;;;;;14.70;72.27;98033.81;12208662;19;20037;-78
2022/09/28 11:44:43;;;;;;;5.15;1.00;;;;;;;14.71;73.19;98034.63;12210809;19;20373;-79
2022/09/28 11:48:54;;;;;;;1.00;0.60;;;;;;;14.72;74.26;98036.25;12188979;19;20018;-79
2022/09/28 11:53:03;;;;;;;1.95;0.70;;;;;;;14.57;71.92;98038.34;12209692;19;20014;-77
2022/09/28 11:57:13;;;;;;;3.80;0.70;;;;;;;14.70;73.53;98039.34;12190632;19;20017;-80
2022/09/28 12:01:34;;;;;;;1.65;0.70;;;;;;;14.79;69.68;98036.63;12208273;19;20010;-79
2022/09/28 12:06:07;;;;;;;1.00;0.63;;;;;;;14.86;67.47;98039.72;12185250;19;20078;-81
2022/09/28 12:10:18;;;;;;;3.25;0.80;;;;;;;15.22;70.44;98028.41;12209470;19;20014;-79
2022/09/28 12:14:31;;;;;;;1.50;0.60;;;;;;;16.24;66.69;98029.88;12209918;19;20010;-79
2022/09/28 12:18:52;;;;;;;0.90;0.60;;;;;;;16.69;65.70;98029.41;12187085;19;20006;-79
2022/09/28 12:23:06;;;;;;;2.08;0.63;;;;;;;16.91;63.62;98027.53;12205598;19;20010;-82
2022/09/28 12:27:19;;;;;;;3.75;0.90;;;;;;;17.01;63.02;98033.56;12183190;19;20000;-79
2022/09/28 12:31:31;;;;;;;1.73;0.57;;;;;;;17.26;60.96;98026.19;12209539;19;20102;-78
2022/09/28 12:36:05;;;;;;;1.35;0.65;;;;;;;17.23;61.15;98018.50;12208239;19;20014;-81
2022/09/28 12:40:13;;;;;;;5.13;0.60;;;;;;;17.14;60.03;98014.97;12185903;19;20070;-80
2022/09/28 12:44:45;;;;;;;2.35;0.95;;;;;;;16.95;58.68;98029.28;12209498;19;20003;-82
2022/09/28 12:49:17;;;;;;;0.95;0.40;;;;;;;16.36;58.55;98023.66;12198973;19;20014;-79
2022/09/28 12:54:03;;;;;;;5.07;0.80;;;;;;;16.38;59.17;98024.91;12218573;19;20660;-80
2022/09/28 12:58:29;;;;;;;2.83;0.63;;;;;;;16.29;61.03;98024.13;12199425;19;20463;-77
2022/09/28 13:02:49;;;;;;;2.60;0.70;;;;;;;16.26;61.38;98024.78;12219840;19;20074;-78
2022/09/28 13:06:51;;;;;;;2.55;0.65;;;;;;;16.07;59.49;98027.94;12196145;19;20391;-79
2022/09/28 13:11:21;;;;;;;1.75;0.57;;;;;;;15.84;59.95;98032.88;12222272;19;20003;-78
2022/09/28 13:15:40;;;;;;;2.33;0.68;;;;;;;15.78;60.45;98033.38;12199602;19;20134;-80
2022/09/28 13:19:56;;;;;;;1.75;0.70;;;;;;;15.64;60.56;98031.53;12220270;19;20010;-80
2022/09/28 13:24:04;;;;;;;0.88;0.40;;;;;;;15.68;61.85;98027.00;12196687;19;20011;-81
2022/09/28 13:28:27;;;;;;;3.05;0.80;;;;;;;15.72;62.04;98027.16;12218356;19;20129;-80
2022/09/28 13:32:31;;;;;;;2.35;0.70;;;;;;;15.91;62.35;98024.88;12210442;19;20006;-80
2022/09/28 13:36:35;;;;;;;3.90;1.45;;;;;;;15.99;60.68;98023.22;12191171;19;20373;-78
2022/09/28 13:41:04;;;;;;;1.25;0.73;;;;;;;16.12;59.67;98013.88;12225536;19;20007;-81
2022/09/28 13:45:31;;;;;;;3.35;0.60;;;;;;;16.23;60.27;98025.44;12200396;19;20131;-78
2022/09/28 13:49:59;;;;;;;3.38;0.77;;;;;;;16.37;59.43;98026.06;12235832;19;20017;-80
2022/09/28 13:54:21;;;;;;;2.03;0.77;;;;;;;16.48;59.09;98025.69;12212881;19;20486;-78
2022/09/28 13:58:31;;;;;;;4.63;0.80;;;;;;;16.24;56.44;98029.03;12221148;19;20019;-79
2022/09/28 14:03:00;;;;;;;2.05;0.80;;;;;;;16.09;57.23;98041.50;12216576;19;20010;-78
2022/09/28 14:07:13;;;;;;;1.98;0.60;;;;;;;15.95;58.86;98033.38;12190046;19;20070;-77
2022/09/28 14:11:33;;;;;;;1.60;0.90;;;;;;;15.69;58.37;98033.38;12218549;19;20017;-78
2022/09/28 14:15:35;;;;;;;3.67;1.33;;;;;;;15.67;60.04;98030.06;12195099;19;20026;-78
2022/09/28 14:19:37;;;;;;;0.70;0.70;;;;;;;15.79;60.94;98033.03;12215022;19;20030;-78
2022/09/28 14:23:55;;;;;;;2.83;0.88;;;;;;;15.89;60.49;98038.25;12211966;19;20086;-79
2022/09/28 14:28:06;;;;;;;1.73;0.70;;;;;;;16.04;60.55;98025.03;12187576;19;20002;-78
2022/09/28 14:32:09;;;;;;;1.40;0.70;;;;;;;16.19;60.19;98035.59;12214570;19;20428;-78
2022/09/28 14:41:08;;;;;;;1.23;0.52;;;;;;;16.68;57.53;98030.53;12189806;19;20014;-77
2022/09/28 14:41:16;;;;;;;1.48;0.73;;;;;;;16.74;57.17;98034.75;12208886;19;22991;-78
2022/09/28 14:45:32;;;;;;;1.77;0.70;;;;;;;16.49;58.44;98032.91;12189335;19;20381;-78
2022/09/28 14:49:43;;;;;;;1.45;0.65;;;;;;;16.16;58.66;98041.81;12211562;19;20006;-77
2022/09/28 14:53:49;;;;;;;1.85;0.60;;;;;;;15.90;59.69;98045.44;12204749;19;20470;-78
2022/09/28 14:57:54;;;;;;;2.72;0.80;;;;;;;15.65;60.69;98049.03;12188375;19;20010;-77
2022/09/28 15:02:01;;;;;;;15.65;2.95;;;;;;;15.45;61.17;98048.50;12205518;19;20388;-78
2022/09/28 15:06:03;;;;;;;4.78;0.90;;;;;;;15.39;62.14;98047.03;12183338;19;20043;-78
2022/09/28 15:10:22;;;;;;;3.58;0.85;;;;;;;15.44;61.35;98046.88;12203684;19;20404;-77
2022/09/28 15:14:31;;;;;;;3.00;0.70;;;;;;;15.44;60.83;98048.84;12209295;19;20341;-79
2022/09/28 15:19:02;;;;;;;1.60;0.70;;;;;;;15.45;61.59;98048.50;12183904;19;20018;-78
2022/09/28 15:23:03;;;;;;;0.77;0.45;;;;;;;15.26;61.58;98051.59;12200257;19;20010;-78
2022/09/28 15:27:17;;;;;;;4.80;0.80;;;;;;;15.18;62.78;98052.38;12180810;19;20007;-77
2022/09/28 15:31:21;;;;;;;2.38;0.70;;;;;;;15.08;62.83;98057.41;12201903;19;20035;-77
2022/09/28 15:35:25;;;;;;;2.45;0.80;;;;;;;14.89;63.19;98066.81;12202372;19;20347;-77
2022/09/28 15:39:31;;;;;;;1.50;1.02;;;;;;;14.72;63.79;98066.75;12178500;19;20015;-77
2022/09/28 15:43:33;;;;;;;4.93;0.93;;;;;;;14.68;63.42;98065.75;12203506;19;20042;-77
2022/09/28 15:47:43;;;;;;;3.30;0.63;;;;;;;14.67;63.08;98061.38;12206234;19;20009;-79
2022/09/28 15:51:51;;;;;;;3.17;0.70;;;;;;;14.56;63.08;98069.94;12187670;19;20025;-80
2022/09/28 15:56:00;;;;;;;1.27;0.73;;;;;;;14.42;63.66;98071.94;12208585;19;20357;-77
2022/09/28 16:00:24;;;;;;;3.33;0.90;;;;;;;14.28;65.58;98072.03;12187416;19;20019;-77
2022/09/28 16:04:36;;;;;;;2.45;0.82;;;;;;;14.18;67.82;98075.06;12209982;19;20015;-79
2022/09/28 16:08:41;;;;;;;3.65;0.88;;;;;;;14.08;69.12;98078.91;12208888;19;20037;-79
2022/09/28 16:12:53;;;;;;;6.85;1.85;;;;;;;14.05;70.84;98082.31;12188964;19;20011;-79
2022/09/28 16:16:54;;;;;;;2.38;1.20;;;;;;;14.01;73.24;98084.09;12211482;19;20011;-79
2022/09/28 16:21:37;;;;;;;5.47;1.45;;;;;;;13.89;75.12;98083.81;12193846;19;20332;-79
2022/09/28 16:25:54;;;;;;;4.38;1.35;;;;;;;13.76;75.71;98085.50;12222338;19;20043;-78
2022/09/28 16:30:13;;;;;;;6.28;1.10;;;;;;;13.63;77.52;98086.38;12198432;19;20003;-78
2022/09/28 16:34:18;;;;;;;4.63;1.23;;;;;;;13.50;77.81;98078.91;12222989;19;20011;-80
2022/09/28 16:38:20;;;;;;;3.72;1.45;;;;;;;13.39;78.98;98089.41;12218348;19;20503;-79
2022/09/28 16:42:23;;;;;;;2.85;0.98;;;;;;;13.28;80.32;98090.75;12201019;19;20471;-79
2022/09/28 16:46:36;;;;;;;1.95;0.90;;;;;;;13.16;81.00;98092.06;12222813;19;20037;-78
2022/09/28 16:50:37;;;;;;;3.42;0.98;;;;;;;13.06;82.10;98100.56;12223634;19;20027;-80
2022/09/28 16:59:01;;;;;;;3.42;1.20;;;;;;;12.87;83.99;98099.84;12221415;19;20003;-79
2022/09/28 17:03:11;;;;;;;2.63;1.25;;;;;;;12.78;85.21;98105.25;12200936;19;20471;-79
2022/09/28 17:07:14;;;;;;;3.67;1.00;;;;;;;12.67;85.74;98101.91;12221453;19;20011;-79
2022/09/28 17:11:18;;;;;;;4.17;1.10;;;;;;;12.57;86.03;98102.06;12220318;19;20011;-79
2022/09/28 17:15:25;;;;;;;4.60;1.00;;;;;;;12.47;86.41;98105.03;12201653;19;20082;-79
2022/09/28 17:19:28;;;;;;;7.60;1.27;;;;;;;12.38;87.25;98104.09;12221595;19;20018;-79
2022/09/28 17:23:30;;;;;;;7.45;1.65;;;;;;;12.32;87.94;98114.41;12220822;19;20014;-79
2022/09/28 17:27:33;;;;;;;1.77;1.33;;;;;;;12.22;89.30;98115.38;12196612;19;20007;-79
2022/09/28 17:31:35;;;;;;;3.35;1.35;;;;;;;12.14;90.32;98110.56;12216242;19;20554;-79
2022/09/28 17:35:36;;;;;;;7.03;1.10;;;;;;;12.08;91.35;98114.53;12220983;19;20010;-81
2022/09/28 17:39:40;;;;;;;2.25;1.10;;;;;;;12.01;92.47;98122.38;12194649;19;19998;-80
2022/09/28 17:43:42;;;;;;;5.00;2.20;;;;;;;11.93;92.50;98123.88;12221242;19;20013;-80
2022/09/28 17:47:43;;;;;;;4.53;1.65;;;;;;;11.85;92.84;98125.38;12217905;19;20007;-81
2022/09/28 17:51:49;;;;;;;2.60;1.38;;;;;;;11.77;93.63;98125.19;12192715;19;20010;-79
2022/09/28 17:55:50;;;;;;;2.88;1.38;;;;;;;11.74;94.32;98134.06;12218624;19;20035;-79
2022/09/28 17:59:52;;;;;;;2.70;1.30;;;;;;;11.68;94.47;98126.97;12198662;19;20030;-80
2022/09/28 18:03:54;;;;;;;1.83;1.10;;;;;;;11.63;94.58;98133.41;12218265;19;20014;-80
2022/09/28 18:07:57;;;;;;;5.07;1.50;;;;;;;11.61;95.07;98128.16;12215350;19;20011;-78
2022/09/28 18:12:02;;;;;;;5.35;1.30;;;;;;;11.58;95.68;98128.78;12195195;19;20015;-80
2022/09/28 18:16:05;;;;;;;1.98;1.10;;;;;;;11.54;95.94;98130.50;12216030;19;20025;-80
2022/09/28 18:20:10;;;;;;;2.42;1.15;;;;;;;11.49;96.51;98121.47;12213996;19;20002;-79
2022/09/28 18:24:12;;;;;;;6.70;1.33;;;;;;;11.41;97.09;98122.94;12190607;19;20109;-81
2022/09/28 18:28:14;;;;;;;4.60;1.70;;;;;;;11.32;97.95;98131.03;12235315;19;20077;-79
2022/09/28 18:32:15;;;;;;;5.60;3.10;;;;;;;11.25;98.60;98125.09;12251796;19;20051;-80
2022/09/28 18:36:17;;;;;;;4.78;1.90;;;;;;;11.21;99.09;98135.03;12238843;19;20110;-79
2022/09/28 18:40:20;;;;;;;3.15;1.50;;;;;;;11.15;98.82;98136.22;12255130;19;20023;-80
2022/09/28 18:44:22;;;;;;;4.13;1.52;;;;;;;11.06;98.93;98140.75;12234656;19;20010;-79
2022/09/28 18:48:26;;;;;;;5.28;1.65;;;;;;;10.97;99.20;98148.03;12190694;19;20007;-79
2022/09/28 18:52:28;;;;;;;3.92;1.45;;;;;;;10.89;99.21;98149.50;12214282;19;20011;-79
2022/09/28 18:56:30;;;;;;;2.95;1.20;;;;;;;10.84;99.57;98149.56;12215632;19;20078;-78
2022/09/28 19:00:31;;;;;;;3.88;1.20;;;;;;;10.80;99.76;98162.28;12194111;19;20017;-79
2022/09/28 19:04:33;;;;;;;2.85;1.40;;;;;;;10.74;100.00;98167.00;12212975;19;20014;-79
2022/09/28 19:08:39;;;;;;;4.53;1.42;;;;;;;10.68;99.98;98166.25;12210235;19;20025;-78
2022/09/28 19:12:40;;;;;;;;;;;;;;;10.62;100.00;98167.41;12189216;19;20015;-78
2022/09/28 19:16:44;;;;;;;9.50;3.75;;;;;;;10.59;99.40;98173.50;12211729;19;19932;-78
2022/09/28 19:20:47;;;;;;;7.03;3.67;;;;;;;10.59;98.92;98167.13;12213770;19;20015;-79
2022/09/28 19:24:48;;;;;;;5.43;2.70;;;;;;;10.60;99.06;98174.31;12186119;19;20011;-79
2022/09/28 19:28:50;;;;;;;6.13;1.90;;;;;;;10.56;99.44;98175.97;12210299;19;20033;-78
2022/09/28 19:32:52;;;;;;;2.67;1.50;;;;;;;10.54;99.28;98175.47;12206714;19;20592;-78
2022/09/28 19:36:54;;;;;;;3.92;1.40;;;;;;;10.49;99.57;98174.38;12210313;19;20018;-79
2022/09/28 19:40:56;;;;;;;3.08;1.38;;;;;;;10.47;99.42;98179.38;12208633;19;20010;-78